createdAt,value
2022-08-05T00:02:07.233Z,7.85
2022-08-05T00:04:10.758Z,8.10
2022-08-05T00:06:29.171Z,7.93
2022-08-05T00:08:36.429Z,8.73
2022-08-05T00:10:39.103Z,9.50
2022-08-05T00:12:56.150Z,8.13
2022-08-05T00:14:59.637Z,7.30
2022-08-05T00:17:22.476Z,8.95
2022-08-05T00:19:33.480Z,8.35
2022-08-05T00:21:43.251Z,8.30
2022-08-05T00:24:06.147Z,8.75
2022-08-05T00:26:10.743Z,9.23
2022-08-05T00:28:14.014Z,8.45
2022-08-05T00:30:16.654Z,8.68
2022-08-05T00:32:20.502Z,9.18
2022-08-05T00:34:56.351Z,9.05
2022-08-05T00:37:11.837Z,8.70
2022-08-05T00:39:14.291Z,8.85
2022-08-05T00:41:51.729Z,8.18
2022-08-05T00:43:53.764Z,9.20
2022-08-05T00:45:56.407Z,8.90
2022-08-05T00:48:05.164Z,10.05
2022-08-05T00:50:10.092Z,9.73
2022-08-05T00:52:12.764Z,10.65
2022-08-05T00:54:16.030Z,8.48
2022-08-05T00:56:22.813Z,8.98
2022-08-05T00:58:27.445Z,8.98
2022-08-05T01:00:31.637Z,10.07
2022-08-05T01:02:34.228Z,9.85
2022-08-05T01:04:36.867Z,9.45
2022-08-05T01:06:48.683Z,9.43
2022-08-05T01:08:54.098Z,11.00
2022-08-05T01:11:14.850Z,10.00
2022-08-05T01:13:58.525Z,10.02
2022-08-05T01:16:05.203Z,10.20
2022-08-05T01:18:15.244Z,9.77
2022-08-05T01:20:37.067Z,8.50
2022-08-05T01:23:34.984Z,8.93
2022-08-05T01:26:15.387Z,9.13
2022-08-05T01:28:42.552Z,9.68
2022-08-05T01:30:55.356Z,10.02
2022-08-05T01:33:00.710Z,9.65
2022-08-05T01:35:10.654Z,10.52
2022-08-05T01:37:25.222Z,11.48
2022-08-05T01:39:46.453Z,10.88
2022-08-05T01:41:52.189Z,11.50
2022-08-05T01:43:57.026Z,12.15
2022-08-05T01:46:07.262Z,10.93
2022-08-05T01:48:20.722Z,10.30
2022-08-05T01:50:32.792Z,12.43
2022-08-05T01:52:38.552Z,11.98
2022-08-05T01:54:48.722Z,11.40
2022-08-05T01:58:13.193Z,11.05
2022-08-05T01:59:23.345Z,11.68
2022-08-05T02:01:28.157Z,11.70
2022-08-05T02:03:40.782Z,11.43
2022-08-05T02:05:45.109Z,10.57
2022-08-05T02:07:56.323Z,10.25
2022-08-05T02:10:05.862Z,10.80
2022-08-05T02:12:27.215Z,11.95
2022-08-05T02:14:34.455Z,11.52
2022-08-05T02:16:54.842Z,12.18
2022-08-05T02:19:34.200Z,9.88
2022-08-05T02:21:46.757Z,12.00
2022-08-05T02:23:56.813Z,11.30
2022-08-05T02:26:03.123Z,11.50
2022-08-05T02:28:08.923Z,11.15
2022-08-05T02:30:12.930Z,11.68
2022-08-05T02:32:24.192Z,11.50
2022-08-05T02:34:35.189Z,11.40
2022-08-05T02:36:59.939Z,10.15
2022-08-05T02:39:10.463Z,10.52
2022-08-05T02:41:17.862Z,10.80
2022-08-05T02:43:23.037Z,10.43
2022-08-05T02:45:26.987Z,10.18
2022-08-05T02:48:06.670Z,10.15
2022-08-05T02:49:56.240Z,11.20
2022-08-05T02:52:02.735Z,10.15
2022-08-05T02:54:07.132Z,10.63
2022-08-05T02:56:16.111Z,10.23
2022-08-05T02:58:23.205Z,10.00
2022-08-05T03:00:30.735Z,9.35
2022-08-05T03:02:39.685Z,9.20
2022-08-05T03:04:43.915Z,10.07
2022-08-05T03:06:57.087Z,10.13
2022-08-05T03:09:02.057Z,10.52
2022-08-05T03:11:57.447Z,10.13
2022-08-05T03:13:51.824Z,9.63
2022-08-05T03:16:03.574Z,9.82
2022-08-05T03:18:06.433Z,8.85
2022-08-05T03:20:10.888Z,10.15
2022-08-05T03:22:19.017Z,11.10
2022-08-05T03:24:35.601Z,9.95
2022-08-05T03:26:38.504Z,10.05
2022-08-05T03:28:41.156Z,9.13
2022-08-05T03:30:44.784Z,9.02
2022-08-05T03:32:49.978Z,9.27
2022-08-05T03:34:52.731Z,9.65
2022-08-05T03:36:55.377Z,8.38
2022-08-05T03:38:58.843Z,8.07
2022-08-05T03:41:08.422Z,7.95
2022-08-05T03:43:58.531Z,8.15
2022-08-05T03:45:57.254Z,7.05
2022-08-05T03:47:59.435Z,8.63
2022-08-05T03:50:02.659Z,7.57
2022-08-05T03:52:49.192Z,7.47
2022-08-05T03:55:00.468Z,6.90
2022-08-05T03:57:29.199Z,7.38
2022-08-05T03:59:54.809Z,7.82
2022-08-05T04:02:02.632Z,6.30
2022-08-05T04:04:09.960Z,6.38
2022-08-05T04:06:13.726Z,6.43
2022-08-05T04:08:35.141Z,6.72
2022-08-05T04:10:39.696Z,7.32
2022-08-05T04:14:45.180Z,6.03
2022-08-05T04:16:48.435Z,7.30
2022-08-05T04:18:54.034Z,5.93
2022-08-05T04:20:58.429Z,7.03
2022-08-05T04:23:01.165Z,6.18
2022-08-05T04:25:04.057Z,7.43
2022-08-05T04:27:06.723Z,6.35
2022-08-05T04:29:10.274Z,5.72
2022-08-05T04:31:12.960Z,6.13
2022-08-05T04:33:16.538Z,6.40
2022-08-05T04:36:15.604Z,5.60
2022-08-05T04:38:06.593Z,6.15
2022-08-05T04:40:10.528Z,6.18
2022-08-05T04:42:13.415Z,5.53
2022-08-05T04:44:29.559Z,5.25
2022-08-05T04:46:33.133Z,5.60
2022-08-05T04:48:35.676Z,4.80
2022-08-05T04:51:01.615Z,4.85
2022-08-05T04:53:05.674Z,4.30
2022-08-05T04:55:14.589Z,5.68
2022-08-05T04:57:17.938Z,5.20
2022-08-05T04:59:37.412Z,4.88
2022-08-05T05:02:35.306Z,4.65
2022-08-05T05:04:05.501Z,4.93
2022-08-05T05:06:39.450Z,5.05
2022-08-05T05:08:37.267Z,5.10
2022-08-05T05:10:56.126Z,4.32
2022-08-05T05:12:59.300Z,3.40
2022-08-05T05:15:06.076Z,4.25
2022-08-05T05:17:13.521Z,3.80
2022-08-05T05:19:19.329Z,3.50
2022-08-05T05:21:27.211Z,3.87
2022-08-05T05:23:39.385Z,3.92
2022-08-05T05:25:52.853Z,4.03
2022-08-05T05:27:56.234Z,4.22
2022-08-05T05:30:04.927Z,3.05
2022-08-05T05:32:08.119Z,3.63
2022-08-05T05:34:19.029Z,3.22
2022-08-05T05:36:28.527Z,3.63
2022-08-05T05:38:32.292Z,3.25
2022-08-05T05:40:35.125Z,3.40
2022-08-05T05:42:38.976Z,3.38
2022-08-05T05:44:43.146Z,3.92
2022-08-05T05:46:48.772Z,3.13
2022-08-05T05:48:53.777Z,2.50
2022-08-05T05:50:56.302Z,2.67
2022-08-05T05:52:58.899Z,2.20
2022-08-05T05:55:07.450Z,2.05
2022-08-05T05:57:19.295Z,2.58
2022-08-05T05:59:22.189Z,2.38
2022-08-05T06:01:25.386Z,2.05
2022-08-05T06:04:00.436Z,2.30
2022-08-05T06:06:06.879Z,2.10
2022-08-05T06:08:10.894Z,1.60
2022-08-05T06:10:13.971Z,1.60
2022-08-05T06:12:18.279Z,1.60
2022-08-05T06:14:22.314Z,1.33
2022-08-05T06:16:33.009Z,2.03
2022-08-05T06:18:39.940Z,1.70
2022-08-05T06:20:42.630Z,1.63
2022-08-05T06:22:50.640Z,1.52
2022-08-05T06:24:53.421Z,1.25
2022-08-05T06:26:56.292Z,1.35
2022-08-05T06:28:58.981Z,1.50
2022-08-05T06:31:10.875Z,1.60
2022-08-05T06:33:19.058Z,1.50
2022-08-05T06:36:07.777Z,1.10
2022-08-05T06:37:58.159Z,1.30
2022-08-05T06:40:03.186Z,1.33
2022-08-05T06:42:07.019Z,1.30
2022-08-05T06:44:09.970Z,1.25
2022-08-05T06:46:13.071Z,1.25
2022-08-05T06:48:52.960Z,1.58
2022-08-05T06:50:38.802Z,1.52
2022-08-05T06:52:41.813Z,1.23
2022-08-05T06:55:02.436Z,1.40
2022-08-05T06:57:58.097Z,1.60
2022-08-05T06:59:29.431Z,1.30
2022-08-05T07:01:42.664Z,1.35
2022-08-05T07:03:46.096Z,1.30
2022-08-05T07:05:49.011Z,1.55
2022-08-05T07:07:52.731Z,1.88
2022-08-05T07:09:58.263Z,2.00
2022-08-05T07:12:01.594Z,1.83
2022-08-05T07:14:28.906Z,2.08
2022-08-05T07:18:00.162Z,1.83
2022-08-05T07:19:16.034Z,1.48
2022-08-05T07:21:59.198Z,2.00
2022-08-05T07:24:01.221Z,2.13
2022-08-05T07:26:06.122Z,2.30
2022-08-05T07:28:11.790Z,1.92
2022-08-05T07:30:28.171Z,2.10
2022-08-05T07:32:39.478Z,2.45
2022-08-05T07:34:42.613Z,1.75
2022-08-05T07:36:45.291Z,2.75
2022-08-05T07:38:47.877Z,2.38
2022-08-05T07:40:55.540Z,2.08
2022-08-05T07:43:13.810Z,2.00
2022-08-05T07:45:56.812Z,1.83
2022-08-05T07:47:45.826Z,2.42
2022-08-05T07:49:54.543Z,2.22
2022-08-05T07:51:57.470Z,2.28
2022-08-05T07:54:02.286Z,2.05
2022-08-05T07:56:38.968Z,2.10
2022-08-05T07:58:54.627Z,2.33
2022-08-05T08:00:51.087Z,2.58
2022-08-05T08:03:13.811Z,2.80
2022-08-05T08:05:17.413Z,2.10
2022-08-05T08:07:22.763Z,2.35
2022-08-05T08:09:26.011Z,2.20
2022-08-05T08:11:47.498Z,3.45
2022-08-05T08:14:00.848Z,2.55
2022-08-05T08:16:50.014Z,2.42
2022-08-05T08:18:28.054Z,2.55
2022-08-05T08:20:43.820Z,3.03
2022-08-05T08:22:57.700Z,2.30
2022-08-05T08:25:03.509Z,2.17
2022-08-05T08:27:07.696Z,2.95
2022-08-05T08:29:45.165Z,2.70
2022-08-05T08:31:33.995Z,2.20
2022-08-05T08:33:37.886Z,2.63
2022-08-05T08:35:53.050Z,2.10
2022-08-05T08:38:07.520Z,2.30
2022-08-05T08:40:11.941Z,3.80
2022-08-05T08:42:46.802Z,1.70
2022-08-05T08:45:16.263Z,2.50
2022-08-05T08:47:47.454Z,2.38
2022-08-05T08:50:12.822Z,2.33
2022-08-05T08:52:14.878Z,2.22
2022-08-05T08:54:19.964Z,2.40
2022-08-05T08:56:27.351Z,2.40
2022-08-05T08:58:43.285Z,2.05
2022-08-05T09:00:49.075Z,2.03
2022-08-05T09:02:54.568Z,2.60
2022-08-05T09:05:16.920Z,2.83
2022-08-05T09:07:28.374Z,2.80
2022-08-05T09:09:35.603Z,2.20
2022-08-05T09:11:51.276Z,2.40
2022-08-05T09:14:09.345Z,2.10
2022-08-05T09:16:20.305Z,2.60
2022-08-05T09:18:23.194Z,2.72
2022-08-05T09:20:37.736Z,2.55
2022-08-05T09:23:05.159Z,2.60
2022-08-05T09:25:14.012Z,2.75
2022-08-05T09:28:04.418Z,2.97
2022-08-05T09:30:02.227Z,2.60
2022-08-05T09:32:41.545Z,2.72
2022-08-05T09:34:55.151Z,2.85
2022-08-05T09:36:59.799Z,2.08
2022-08-05T09:39:18.125Z,2.45
2022-08-05T09:41:25.256Z,2.40
2022-08-05T09:43:41.947Z,2.95
2022-08-05T09:46:07.277Z,2.90
2022-08-05T09:48:28.453Z,2.63
2022-08-05T09:50:38.901Z,2.67
2022-08-05T09:52:52.919Z,2.83
2022-08-05T09:55:57.383Z,3.38
2022-08-05T09:57:44.066Z,2.75
2022-08-05T09:59:48.264Z,2.38
2022-08-05T10:01:57.890Z,4.88
2022-08-05T10:04:12.483Z,3.03
2022-08-05T10:06:21.268Z,2.05
2022-08-05T10:08:37.726Z,2.13
2022-08-05T10:10:44.786Z,2.47
2022-08-05T10:12:56.620Z,2.47
2022-08-05T10:15:21.667Z,1.95
2022-08-05T10:17:37.827Z,2.80
2022-08-05T10:20:03.577Z,2.38
2022-08-05T10:22:09.123Z,2.45
2022-08-05T10:24:20.510Z,2.30
2022-08-05T10:26:32.619Z,2.40
2022-08-05T10:28:36.834Z,2.60
2022-08-05T10:32:46.881Z,3.03
2022-08-05T10:33:03.913Z,2.80
2022-08-05T10:35:07.294Z,2.15
2022-08-05T10:37:13.297Z,2.80
2022-08-05T10:39:59.180Z,2.35
2022-08-05T10:42:09.232Z,1.98
2022-08-05T10:44:18.402Z,2.33
2022-08-05T10:46:24.266Z,2.20
2022-08-05T10:48:58.164Z,2.72
2022-08-05T10:51:22.037Z,2.70
2022-08-05T10:53:55.620Z,2.47
2022-08-05T10:56:21.052Z,2.35
2022-08-05T10:58:47.759Z,2.30
2022-08-05T11:00:55.073Z,2.50
2022-08-05T11:03:22.991Z,3.20
2022-08-05T11:05:29.319Z,1.95
2022-08-05T11:08:01.240Z,2.08
2022-08-05T11:10:04.035Z,2.47
2022-08-05T11:12:37.298Z,2.25
2022-08-05T11:15:00.970Z,2.25
2022-08-05T11:17:57.014Z,2.90
2022-08-05T11:20:11.257Z,1.80
2022-08-05T11:22:42.255Z,2.22
2022-08-05T11:24:50.735Z,1.95
2022-08-05T11:27:51.206Z,2.38
2022-08-05T11:30:00.194Z,2.03
2022-08-05T11:32:28.622Z,2.25
2022-08-05T11:34:50.984Z,2.38
2022-08-05T11:36:57.183Z,2.40
2022-08-05T11:39:00.237Z,2.17
2022-08-05T11:41:36.800Z,2.22
2022-08-05T11:44:04.601Z,2.00
2022-08-05T11:46:14.968Z,2.42
2022-08-05T11:48:15.210Z,1.90
2022-08-05T11:50:18.335Z,2.47
2022-08-05T11:52:29.068Z,1.73
2022-08-05T11:54:38.233Z,2.28
2022-08-05T11:58:54.606Z,2.60
2022-08-05T12:01:08.482Z,2.22
2022-08-05T12:03:23.949Z,1.92
2022-08-05T12:05:39.757Z,1.70
2022-08-05T12:08:03.577Z,2.20
2022-08-05T12:10:09.680Z,1.77
2022-08-05T12:12:20.999Z,2.13
2022-08-05T12:14:25.574Z,2.20
2022-08-05T12:16:38.386Z,1.77
2022-08-05T12:18:42.739Z,1.92
2022-08-05T12:20:54.819Z,1.98
2022-08-05T12:23:11.436Z,1.98
2022-08-05T12:25:14.514Z,2.17
2022-08-05T12:27:26.834Z,2.53
2022-08-05T12:29:37.936Z,2.20
2022-08-05T12:31:53.502Z,2.17
2022-08-05T12:33:57.489Z,1.75
2022-08-05T12:36:02.702Z,1.50
2022-08-05T12:38:07.340Z,1.92
2022-08-05T12:40:26.554Z,2.08
2022-08-05T12:42:31.576Z,2.22
2022-08-05T12:44:34.511Z,2.33
2022-08-05T12:46:39.102Z,2.25
2022-08-05T12:48:41.872Z,2.17
2022-08-05T12:52:10.273Z,2.00
2022-08-05T12:53:55.747Z,1.90
2022-08-05T12:55:58.565Z,1.73
2022-08-05T12:58:52.741Z,2.03
2022-08-05T13:02:02.758Z,1.60
2022-08-05T13:02:55.490Z,1.95
2022-08-05T13:04:58.698Z,2.20
2022-08-05T13:07:04.782Z,1.77
2022-08-05T13:09:14.356Z,1.80
2022-08-05T13:12:01.033Z,2.25
2022-08-05T13:14:05.273Z,1.60
2022-08-05T13:16:16.668Z,1.70
2022-08-05T13:18:20.533Z,2.10
2022-08-05T13:20:25.348Z,1.83
2022-08-05T13:22:30.944Z,2.00
2022-08-05T13:24:51.377Z,2.03
2022-08-05T13:26:56.405Z,1.90
2022-08-05T13:29:00.685Z,1.67
2022-08-05T13:31:14.040Z,1.65
2022-08-05T13:34:22.451Z,1.83
2022-08-05T13:35:47.625Z,1.73
2022-08-05T13:37:55.343Z,1.73
2022-08-05T13:40:15.115Z,1.48
2022-08-05T13:42:24.990Z,1.90
2022-08-05T13:44:27.709Z,2.05
2022-08-05T13:46:51.013Z,1.98
2022-08-05T13:48:57.664Z,2.22
2022-08-05T13:51:10.702Z,2.13
2022-08-05T13:53:15.789Z,1.80
2022-08-05T13:55:41.575Z,2.10
2022-08-05T13:57:50.620Z,2.42
2022-08-05T13:59:57.184Z,1.92
2022-08-05T14:02:01.029Z,2.15
2022-08-05T14:04:26.513Z,2.35
2022-08-05T14:06:29.353Z,2.25
2022-08-05T14:08:32.991Z,2.53
2022-08-05T14:10:37.549Z,2.03
2022-08-05T14:12:42.957Z,2.28
2022-08-05T14:14:51.351Z,1.80
2022-08-05T14:16:55.369Z,1.80
2022-08-05T14:19:04.421Z,2.60
2022-08-05T14:22:07.117Z,2.35
2022-08-05T14:23:36.297Z,2.15
2022-08-05T14:25:45.067Z,2.65
2022-08-05T14:27:49.611Z,1.98
2022-08-05T14:29:52.848Z,1.95
2022-08-05T14:32:13.764Z,2.08
2022-08-05T14:34:17.970Z,1.52
2022-08-05T14:36:26.459Z,1.70
2022-08-05T14:38:34.434Z,1.90
2022-08-05T14:40:38.897Z,2.00
2022-08-05T14:42:42.222Z,2.13
2022-08-05T14:44:46.004Z,2.53
2022-08-05T14:46:48.547Z,2.78
2022-08-05T14:48:51.301Z,2.55
2022-08-05T14:50:55.587Z,2.33
2022-08-05T14:52:59.946Z,2.38
2022-08-05T14:55:02.937Z,2.90
2022-08-05T14:57:09.838Z,2.97
2022-08-05T14:59:16.603Z,3.90
2022-08-05T15:01:24.217Z,3.22
2022-08-05T15:03:42.471Z,2.58
2022-08-05T15:06:07.326Z,3.47
2022-08-05T15:08:18.001Z,2.92
2022-08-05T15:10:34.242Z,3.30
2022-08-05T15:12:57.660Z,3.83
2022-08-05T15:14:59.815Z,4.63
2022-08-05T15:17:03.757Z,5.47
2022-08-05T15:19:06.654Z,5.55
2022-08-05T15:21:20.950Z,5.20
2022-08-05T15:23:23.877Z,4.60
2022-08-05T15:25:50.954Z,4.85
2022-08-05T15:27:52.326Z,4.38
2022-08-05T15:29:56.847Z,3.65
2022-08-05T15:32:03.372Z,3.92
2022-08-05T15:34:31.506Z,3.90
2022-08-05T15:36:31.234Z,3.75
2022-08-05T15:38:41.763Z,4.35
2022-08-05T15:41:20.324Z,4.00
2022-08-05T15:43:10.812Z,3.47
2022-08-05T15:45:23.174Z,3.13
2022-08-05T15:47:43.054Z,3.38
2022-08-05T15:49:53.755Z,3.85
2022-08-05T15:52:04.023Z,3.58
2022-08-05T15:54:16.768Z,3.03
2022-08-05T15:56:22.991Z,4.28
2022-08-05T15:58:25.629Z,3.80
2022-08-05T16:00:50.499Z,4.57
2022-08-05T16:02:51.885Z,4.22
2022-08-05T16:04:55.245Z,4.95
2022-08-05T16:06:57.752Z,4.38
2022-08-05T16:09:00.775Z,4.43
2022-08-05T16:11:04.530Z,5.18
2022-08-05T16:13:07.079Z,3.60
2022-08-05T16:15:10.778Z,3.60
2022-08-05T16:20:02.822Z,4.35
2022-08-05T16:22:01.059Z,4.60
2022-08-05T16:24:06.484Z,5.10
2022-08-05T16:26:15.535Z,4.72
2022-08-05T16:28:19.744Z,5.35
2022-08-05T16:30:28.586Z,4.90
2022-08-05T16:32:32.140Z,4.68
2022-08-05T16:34:34.846Z,5.15
2022-08-05T16:36:37.355Z,3.92
2022-08-05T16:38:45.381Z,7.03
2022-08-05T16:41:01.400Z,4.15
2022-08-05T16:43:04.687Z,5.95
2022-08-05T16:46:04.636Z,6.65
2022-08-05T16:47:36.188Z,4.32
2022-08-05T16:49:43.472Z,4.10
2022-08-05T16:51:51.063Z,4.90
2022-08-05T16:54:03.141Z,4.40
2022-08-05T16:56:11.963Z,3.75
2022-08-05T16:58:14.867Z,4.70
2022-08-05T17:00:34.661Z,3.75
2022-08-05T17:02:37.957Z,5.65
2022-08-05T17:04:40.774Z,5.28
2022-08-05T17:06:43.330Z,5.28
2022-08-05T17:08:55.728Z,5.57
2022-08-05T17:10:58.300Z,5.05
2022-08-05T17:13:01.511Z,5.18
2022-08-05T17:15:07.649Z,6.35
2022-08-05T17:17:14.827Z,6.32
2022-08-05T17:19:17.997Z,5.88
2022-08-05T17:21:20.578Z,5.60
2022-08-05T17:24:06.008Z,5.70
2022-08-05T17:25:48.900Z,5.07
2022-08-05T17:27:54.135Z,5.75
2022-08-05T17:30:00.866Z,6.25
2022-08-05T17:32:08.278Z,7.18
2022-08-05T17:34:11.145Z,7.20
2022-08-05T17:36:32.534Z,6.72
2022-08-05T17:38:37.648Z,5.78
2022-08-05T17:40:42.476Z,5.50
2022-08-05T17:42:50.987Z,5.63
2022-08-05T17:44:54.784Z,5.10
2022-08-05T17:46:57.621Z,5.18
2022-08-05T17:49:00.169Z,4.70
2022-08-05T17:51:03.246Z,5.38
2022-08-05T17:53:11.945Z,5.32
2022-08-05T17:55:14.549Z,4.93
2022-08-05T17:57:18.258Z,5.03
2022-08-05T17:59:22.751Z,5.07
2022-08-05T18:01:25.940Z,5.30
2022-08-05T18:03:58.915Z,5.07
2022-08-05T18:05:53.615Z,4.03
2022-08-05T18:07:57.028Z,5.65
2022-08-05T18:10:02.066Z,4.95
2022-08-05T18:12:13.028Z,4.15
2022-08-05T18:14:25.042Z,4.60
2022-08-05T18:16:27.717Z,4.50
2022-08-05T18:18:30.497Z,4.03
2022-08-05T18:20:33.140Z,4.28
2022-08-05T18:22:46.208Z,5.32
2022-08-05T18:24:57.357Z,4.47
2022-08-05T18:26:59.966Z,7.10
2022-08-05T18:29:02.443Z,4.65
2022-08-05T18:31:06.327Z,5.40
2022-08-05T18:33:13.840Z,5.78
2022-08-05T18:35:17.313Z,5.82
2022-08-05T18:37:34.229Z,5.72
2022-08-05T18:40:34.546Z,5.45
2022-08-05T18:42:10.917Z,4.93
2022-08-05T18:44:14.036Z,5.28
2022-08-05T18:46:37.162Z,5.88
2022-08-05T18:48:43.834Z,5.82
2022-08-05T18:52:02.884Z,6.00
2022-08-05T18:53:29.647Z,5.93
2022-08-05T18:55:37.262Z,5.32
2022-08-05T18:57:49.894Z,4.88
2022-08-05T19:00:01.395Z,6.10
2022-08-05T19:02:26.737Z,5.63
2022-08-05T19:04:30.739Z,5.30
2022-08-05T19:06:44.696Z,4.85
2022-08-05T19:08:48.331Z,4.63
2022-08-05T19:10:51.092Z,5.43
2022-08-05T19:12:53.913Z,4.18
2022-08-05T19:14:59.785Z,4.95
2022-08-05T19:17:06.347Z,5.38
2022-08-05T19:19:10.264Z,5.35
2022-08-05T19:21:16.001Z,4.60
2022-08-05T19:24:05.771Z,4.90
2022-08-05T19:25:43.541Z,4.78
2022-08-05T19:27:49.855Z,4.93
2022-08-05T19:29:56.667Z,5.25
2022-08-05T19:32:01.622Z,4.50
2022-08-05T19:34:04.380Z,3.45
2022-08-05T19:36:09.057Z,4.88
2022-08-05T19:38:11.795Z,4.10
2022-08-05T19:40:17.166Z,4.97
2022-08-05T19:42:35.780Z,4.20
2022-08-05T19:44:45.053Z,3.90
2022-08-05T19:46:50.151Z,4.13
2022-08-05T19:48:53.692Z,3.05
2022-08-05T19:50:57.877Z,4.00
2022-08-05T19:53:09.666Z,3.90
2022-08-05T19:56:14.765Z,3.58
2022-08-05T19:57:49.257Z,3.25
2022-08-05T20:00:02.544Z,3.40
2022-08-05T20:02:07.400Z,3.67
2022-08-05T20:04:09.955Z,3.53
2022-08-05T20:06:16.035Z,4.28
2022-08-05T20:08:31.596Z,4.70
2022-08-05T20:10:34.200Z,3.58
2022-08-05T20:12:39.398Z,3.55
2022-08-05T20:14:52.713Z,4.03
2022-08-05T20:16:56.162Z,3.47
2022-08-05T20:18:59.274Z,3.78
2022-08-05T20:21:06.810Z,3.92
2022-08-05T20:23:09.565Z,2.85
2022-08-05T20:25:15.045Z,4.28
2022-08-05T20:27:18.323Z,4.10
2022-08-05T20:29:27.307Z,3.50
2022-08-05T20:31:42.086Z,3.50
2022-08-05T20:33:53.533Z,4.22
2022-08-05T20:35:56.762Z,3.72
2022-08-05T20:38:06.385Z,4.07
2022-08-05T20:40:11.322Z,4.05
2022-08-05T20:42:13.860Z,4.03
2022-08-05T20:44:29.789Z,3.80
2022-08-05T20:46:33.692Z,4.90
2022-08-05T20:48:37.127Z,3.67
2022-08-05T20:50:45.250Z,4.43
2022-08-05T20:52:48.181Z,4.57
2022-08-05T20:54:59.518Z,5.03
2022-08-05T20:57:24.664Z,4.60
2022-08-05T21:00:10.999Z,4.13
2022-08-05T21:02:02.852Z,4.40
2022-08-05T21:04:12.484Z,4.40
2022-08-05T21:06:28.555Z,4.88
2022-08-05T21:08:42.346Z,4.57
2022-08-05T21:10:48.823Z,4.40
2022-08-05T21:13:08.935Z,4.55
2022-08-05T21:15:17.010Z,5.55
2022-08-05T21:17:19.979Z,4.75
2022-08-05T21:19:24.045Z,5.28
2022-08-05T21:21:26.533Z,4.97
2022-08-05T21:23:42.408Z,4.40
2022-08-05T21:25:45.290Z,4.97
2022-08-05T21:27:47.835Z,5.07
2022-08-05T21:29:56.411Z,5.10
2022-08-05T21:31:59.129Z,4.60
2022-08-05T21:34:01.630Z,4.25
2022-08-05T21:36:04.685Z,4.68
2022-08-05T21:38:07.552Z,5.00
2022-08-05T21:40:13.681Z,4.63
2022-08-05T21:42:41.221Z,4.97
2022-08-05T21:44:39.436Z,4.93
2022-08-05T21:46:41.942Z,4.82
2022-08-05T21:48:45.524Z,4.20
2022-08-05T21:50:53.011Z,5.70
2022-08-05T21:52:59.099Z,4.80
2022-08-05T21:55:10.940Z,4.80
2022-08-05T21:57:31.384Z,5.35
2022-08-05T22:00:01.599Z,4.85
2022-08-05T22:01:57.654Z,5.03
2022-08-05T22:04:00.206Z,5.88
2022-08-05T22:06:02.763Z,4.30
2022-08-05T22:08:07.859Z,5.57
2022-08-05T22:10:27.319Z,5.38
2022-08-05T22:12:32.216Z,4.80
2022-08-05T22:14:37.742Z,4.32
2022-08-05T22:16:51.125Z,5.10
2022-08-05T22:18:58.790Z,5.15
2022-08-05T22:21:04.086Z,4.53
2022-08-05T22:24:03.061Z,5.60
2022-08-05T22:26:10.872Z,4.68
2022-08-05T22:28:14.346Z,6.40
2022-08-05T22:30:20.778Z,5.40
2022-08-05T22:32:23.641Z,5.43
2022-08-05T22:34:28.790Z,5.68
2022-08-05T22:36:31.860Z,5.30
2022-08-05T22:38:34.432Z,6.28
2022-08-05T22:40:37.101Z,5.50
2022-08-05T22:42:41.081Z,5.18
2022-08-05T22:44:48.523Z,6.30
2022-08-05T22:46:58.193Z,6.00
2022-08-05T22:49:01.174Z,5.70
2022-08-05T22:51:07.083Z,5.38
2022-08-05T22:53:10.524Z,5.10
2022-08-05T22:55:21.434Z,5.63
2022-08-05T22:57:24.256Z,5.38
2022-08-05T22:59:43.569Z,5.40
2022-08-05T23:02:04.480Z,5.95
2022-08-05T23:04:08.929Z,5.45
2022-08-05T23:06:11.493Z,4.60
2022-08-05T23:08:14.296Z,5.40
2022-08-05T23:10:19.948Z,5.50
2022-08-05T23:12:24.444Z,6.53
2022-08-05T23:14:32.300Z,6.63
2022-08-05T23:16:53.984Z,5.80
2022-08-05T23:18:56.705Z,7.15
2022-08-05T23:21:00.619Z,5.95
2022-08-05T23:23:03.619Z,6.35
2022-08-05T23:25:09.193Z,6.07
2022-08-05T23:27:14.893Z,6.85
2022-08-05T23:29:17.787Z,7.53
2022-08-05T23:31:22.007Z,6.45
2022-08-05T23:33:26.563Z,6.50
2022-08-05T23:35:48.288Z,7.78
2022-08-05T23:37:52.088Z,7.53
2022-08-05T23:39:55.739Z,7.20
2022-08-05T23:41:58.278Z,7.43
2022-08-05T23:44:06.522Z,8.05
2022-08-05T23:46:19.650Z,9.07
2022-08-05T23:48:23.016Z,8.55
2022-08-05T23:50:28.945Z,8.55
2022-08-05T23:52:35.846Z,7.93
2022-08-05T23:54:38.909Z,8.15
2022-08-05T23:56:41.575Z,7.70
2022-08-05T23:58:44.828Z,9.73
